Time;durP1;ratioP1;P1;durP2;ratioP2;P2;SDS_P1;SDS_P2;PMS_P1;PMS_P2;Temp;Humidity;BMP_temperature;BMP_pressure;BME280_temperature;BME280_humidity;BME280_pressure;Samples;Min_cycle;Max_cycle;Signal;HPM_P1;HPM_P2
2022/01/25 00:24:20;;;;;;;47.47;26.50;;;;;;;2.72;89.27;103141.72;5013647;28;20034;-80
2022/01/25 00:27:00;;;;;;;49.90;26.58;;;;;;;2.71;89.70;103135.78;5023600;28;20048;-79
2022/01/25 00:29:46;;;;;;;49.92;28.67;;;;;;;2.70;89.51;103138.38;4997393;28;20027;-80
2022/01/25 00:32:12;;;;;;;52.05;28.45;;;;;;;2.65;90.14;103147.94;4999647;28;20037;-80
2022/01/25 00:34:38;;;;;;;48.85;27.95;;;;;;;2.61;90.66;103144.63;5009274;28;20097;-80
2022/01/25 00:37:04;;;;;;;51.83;29.25;;;;;;;2.62;91.31;103155.69;5007711;28;20598;-81
2022/01/25 00:39:30;;;;;;;47.35;27.52;;;;;;;2.58;91.06;103149.84;5015054;28;20038;-79
2022/01/25 00:41:56;;;;;;;50.22;28.02;;;;;;;2.59;91.74;103150.69;5018133;28;20037;-80
2022/01/25 00:44:21;;;;;;;50.10;28.38;;;;;;;2.57;91.25;103150.72;5009281;28;20477;-81
2022/01/25 00:46:47;;;;;;;49.10;27.95;;;;;;;2.62;91.51;103161.69;5002254;28;20057;-80
2022/01/25 00:49:21;;;;;;;45.75;27.30;;;;;;;2.59;91.28;103156.63;5015836;28;20504;-81
2022/01/25 00:56:49;;;;;;;40.15;25.20;;;;;;;2.68;90.55;103151.22;5018484;28;20038;-80
2022/01/25 00:59:26;;;;;;;45.35;25.67;;;;;;;2.64;90.60;103146.25;5000709;28;20105;-80
2022/01/25 01:01:55;;;;;;;41.72;25.15;;;;;;;2.66;90.31;103153.00;5004091;28;20080;-80
2022/01/25 01:04:20;;;;;;;41.42;24.27;;;;;;;2.61;90.31;103148.91;5001691;28;20100;-81
2022/01/25 01:06:47;;;;;;;42.58;24.60;;;;;;;2.59;90.71;103141.25;5010628;28;20037;-80
2022/01/25 01:09:14;;;;;;;42.40;24.13;;;;;;;2.59;90.93;103150.69;5010090;28;20389;-80
2022/01/25 01:11:48;;;;;;;38.05;23.65;;;;;;;2.64;91.06;103154.78;5001902;28;20041;-79
2022/01/25 01:14:38;;;;;;;40.65;23.05;;;;;;;2.61;90.95;103154.88;5017226;28;20064;-79
2022/01/25 01:38:27;;;;;;;40.88;24.30;;;;;;;2.65;90.91;103160.72;5012706;28;20065;-79
2022/01/25 01:43:35;;;;;;;41.88;23.65;;;;;;;2.62;90.89;103151.44;5010518;28;20452;-80
2022/01/25 01:48:33;;;;;;;43.80;25.20;;;;;;;2.62;90.94;103153.13;5013377;28;20026;-80
2022/01/25 01:51:07;;;;;;;46.22;25.52;;;;;;;2.77;89.91;103154.38;5017898;28;20057;-80
2022/01/25 01:53:33;;;;;;;43.97;24.42;;;;;;;2.65;90.45;103151.31;5016092;28;20416;-80
2022/01/25 01:55:59;;;;;;;41.63;24.75;;;;;;;2.61;90.73;103151.47;5001978;28;20018;-80
2022/01/25 01:58:25;;;;;;;54.50;28.05;;;;;;;2.70;90.34;103151.19;5015905;28;20045;-81
2022/01/25 02:00:51;;;;;;;45.33;25.73;;;;;;;2.60;90.83;103148.06;4995282;28;20535;-80
2022/01/25 02:03:18;;;;;;;49.75;25.60;;;;;;;2.64;90.99;103146.25;5011701;28;20112;-80
2022/01/25 02:05:44;;;;;;;47.70;26.27;;;;;;;2.69;90.50;103154.63;5007047;28;20038;-80
2022/01/25 02:08:10;;;;;;;45.85;26.20;;;;;;;2.63;90.50;103160.78;5014550;28;20026;-81
2022/01/25 02:10:36;;;;;;;44.50;24.52;;;;;;;2.75;90.86;103151.03;4996560;28;20038;-80
2022/01/25 02:13:10;;;;;;;42.20;23.77;;;;;;;2.74;90.28;103145.09;5015647;28;20044;-80
2022/01/25 02:15:38;;;;;;;39.17;22.98;;;;;;;2.65;90.40;103140.25;5019730;28;20065;-79
2022/01/25 02:23:37;;;;;;;37.72;23.38;;;;;;;2.73;90.15;103133.13;5010491;28;20043;-80
2022/01/25 02:26:05;;;;;;;45.97;23.95;;;;;;;2.81;89.92;103127.81;5017249;28;20038;-80
2022/01/25 02:28:34;;;;;;;42.92;23.20;;;;;;;2.68;90.26;103135.84;5016746;28;20046;-79
2022/01/25 02:31:00;;;;;;;41.58;25.20;;;;;;;2.57;90.63;103134.53;4994761;28;20069;-80
2022/01/25 02:33:27;;;;;;;47.28;26.00;;;;;;;2.57;90.80;103137.09;5002962;28;20034;-78
2022/01/25 02:35:54;;;;;;;54.63;28.15;;;;;;;2.61;91.15;103134.38;5019007;28;20041;-80
2022/01/25 02:38:24;;;;;;;59.58;30.48;;;;;;;2.62;90.53;103133.50;5020813;28;20053;-81
2022/01/25 02:40:49;;;;;;;55.13;30.05;;;;;;;2.64;90.54;103136.00;5011778;28;20068;-81
2022/01/25 02:43:18;;;;;;;61.78;32.08;;;;;;;2.64;90.54;103138.59;5012401;28;20077;-80
2022/01/25 02:46:01;;;;;;;58.85;32.33;;;;;;;2.63;90.63;103137.72;5003175;28;20045;-79
2022/01/25 02:48:30;;;;;;;58.20;31.30;;;;;;;2.55;91.14;103143.97;4999339;28;20041;-80
2022/01/25 02:50:57;;;;;;;63.22;30.10;;;;;;;2.50;91.39;103136.41;5014906;28;20042;-80
2022/01/25 02:53:23;;;;;;;62.97;30.85;;;;;;;2.51;91.82;103135.56;5017573;28;20034;-80
2022/01/25 02:55:48;;;;;;;57.08;30.88;;;;;;;2.50;91.96;103138.97;5003482;28;20112;-79
2022/01/25 02:58:14;;;;;;;59.85;29.48;;;;;;;2.49;91.89;103132.19;5001471;28;20036;-80
2022/01/25 03:00:39;;;;;;;59.90;31.67;;;;;;;2.58;91.78;103136.19;5020037;28;20111;-79
2022/01/25 03:03:05;;;;;;;57.60;30.88;;;;;;;2.53;91.59;103142.28;5000638;28;20291;-79
2022/01/25 03:05:31;;;;;;;59.60;31.35;;;;;;;2.51;91.82;103143.22;4999065;28;20057;-79
2022/01/25 03:07:57;;;;;;;57.78;30.20;;;;;;;2.50;92.01;103138.97;4999413;28;20029;-78
2022/01/25 03:10:23;;;;;;;53.47;30.13;;;;;;;2.50;92.09;103134.69;5012282;28;20026;-80
2022/01/25 03:12:54;;;;;;;60.33;31.20;;;;;;;2.49;92.14;103124.50;4995909;28;20042;-80
2022/01/25 03:18:14;;;;;;;60.13;30.48;;;;;;;2.49;92.60;103132.19;5018446;28;20134;-82
2022/01/25 03:20:59;;;;;;;60.97;31.48;;;;;;;2.50;92.41;103127.00;5015962;28;20061;-80
2022/01/25 03:23:24;;;;;;;59.85;31.13;;;;;;;2.51;92.39;103128.69;5006352;28;20050;-80
2022/01/25 03:25:51;;;;;;;57.15;29.77;;;;;;;2.51;92.42;103117.63;5038722;28;20127;-80
2022/01/25 03:28:19;;;;;;;60.40;30.20;;;;;;;2.52;92.70;103114.16;5004640;28;20034;-79
2022/01/25 03:30:46;;;;;;;64.82;31.27;;;;;;;2.63;92.24;103112.09;5008673;28;20051;-80
2022/01/25 03:33:13;;;;;;;60.05;29.85;;;;;;;2.59;91.52;103105.41;5017838;28;20036;-79
2022/01/25 03:35:39;;;;;;;60.13;31.05;;;;;;;2.59;92.07;103110.53;5013720;28;20132;-79
2022/01/25 03:38:05;;;;;;;60.75;31.33;;;;;;;2.60;91.56;103112.22;5006473;28;20119;-80
2022/01/25 03:40:31;;;;;;;59.22;29.88;;;;;;;2.58;91.78;103105.44;5016482;28;20046;-80
2022/01/25 03:42:59;;;;;;;64.82;31.35;;;;;;;2.55;91.76;103103.00;5021660;28;20042;-80
2022/01/25 03:45:30;;;;;;;58.22;29.60;;;;;;;2.51;92.08;103103.06;5021543;28;20041;-80
2022/01/25 03:50:39;;;;;;;59.45;28.88;;;;;;;2.46;92.27;103104.94;5022857;28;20030;-81
2022/01/25 03:53:05;;;;;;;59.92;29.80;;;;;;;2.53;92.37;103105.59;5021299;28;20022;-81
2022/01/25 03:55:31;;;;;;;58.65;29.70;;;;;;;2.52;92.40;103102.22;5015000;28;20292;-81
2022/01/25 03:57:56;;;;;;;57.15;29.38;;;;;;;2.51;92.46;103097.97;5007225;28;20072;-79
2022/01/25 04:00:22;;;;;;;59.45;29.08;;;;;;;2.53;92.12;103098.75;5002184;28;20030;-80
2022/01/25 04:03:00;;;;;;;54.15;28.27;;;;;;;2.46;92.43;103102.38;5024002;28;20061;-80
2022/01/25 04:05:38;;;;;;;60.60;29.05;;;;;;;2.44;92.53;103095.63;5021795;28;20029;-79
2022/01/25 04:08:04;;;;;;;55.80;30.05;;;;;;;2.53;92.49;103103.03;5038462;28;20053;-79
2022/01/25 04:10:31;;;;;;;58.70;29.42;;;;;;;2.53;92.29;103103.88;4997035;28;20037;-80
2022/01/25 04:12:57;;;;;;;55.67;28.38;;;;;;;2.48;91.74;103099.78;5023149;28;20036;-80
2022/01/25 04:15:23;;;;;;;62.10;30.60;;;;;;;2.56;91.49;103097.81;5018840;28;20785;-80
2022/01/25 04:17:55;;;;;;;58.85;29.58;;;;;;;2.51;90.74;103099.69;5009796;28;20598;-79
2022/01/25 04:20:28;;;;;;;54.70;29.90;;;;;;;2.45;91.00;103093.03;4994502;28;20049;-81
2022/01/25 04:25:38;;;;;;;49.75;24.00;;;;;;;2.40;91.05;103089.75;5026078;28;20033;-79
2022/01/25 04:28:04;;;;;;;60.20;27.25;;;;;;;2.42;90.98;103094.84;5012535;28;20041;-80
2022/01/25 04:30:29;;;;;;;54.40;27.50;;;;;;;2.50;89.70;103091.16;5001031;28;20031;-80
2022/01/25 04:33:01;;;;;;;56.50;27.85;;;;;;;2.59;89.11;103095.16;5001420;28;20516;-80
2022/01/25 04:56:37;;;;;;;50.45;26.02;;;;;;;2.38;89.74;103096.66;5006309;28;20046;-79
2022/01/25 04:59:21;;;;;;;58.72;28.00;;;;;;;2.44;89.30;103093.06;5002231;28;20272;-79
2022/01/25 05:01:49;;;;;;;62.17;30.23;;;;;;;2.47;89.22;103091.25;5009024;28;20496;-79
2022/01/25 05:04:22;;;;;;;57.78;30.00;;;;;;;2.39;89.24;103085.50;5005178;28;20037;-79
2022/01/25 05:06:50;;;;;;;55.97;28.98;;;;;;;2.42;89.46;103084.59;5007221;28;20030;-80
2022/01/25 05:09:16;;;;;;;54.60;29.27;;;;;;;2.47;89.12;103086.13;5007637;28;20022;-79
2022/01/25 05:11:46;;;;;;;62.60;30.52;;;;;;;2.43;89.28;103086.25;5005034;28;20042;-79
2022/01/25 05:14:17;;;;;;;56.63;29.65;;;;;;;2.44;89.25;103078.53;4993768;28;20040;-79
2022/01/25 05:16:52;;;;;;;55.97;29.25;;;;;;;2.41;89.40;103085.47;4987089;28;20105;-79
2022/01/25 05:19:36;;;;;;;53.75;28.25;;;;;;;2.37;89.96;103082.16;4987951;28;20042;-79
2022/01/25 05:22:04;;;;;;;50.75;27.63;;;;;;;2.37;90.28;103079.59;4993558;28;20038;-80
2022/01/25 05:24:41;;;;;;;54.83;27.92;;;;;;;2.36;90.53;103083.06;5015835;28;20037;-80
2022/01/25 05:27:15;;;;;;;59.05;30.75;;;;;;;2.38;90.07;103090.72;4990831;28;20128;-79
2022/01/25 05:29:41;;;;;;;57.10;30.40;;;;;;;2.37;90.53;103087.28;4991930;28;20062;-80
2022/01/25 05:32:07;;;;;;;54.63;28.88;;;;;;;2.36;90.29;103088.19;4990156;28;20064;-79
2022/01/25 05:34:32;;;;;;;58.70;29.77;;;;;;;2.36;90.36;103087.34;4990834;28;20046;-80
2022/01/25 05:36:58;;;;;;;55.65;30.35;;;;;;;2.36;90.48;103082.25;4987673;28;20499;-79
2022/01/25 05:39:31;;;;;;;55.70;29.35;;;;;;;2.35;90.29;103089.06;4986010;28;20088;-80
2022/01/25 05:42:02;;;;;;;57.67;29.85;;;;;;;2.36;90.78;103075.38;5006044;28;20052;-80
2022/01/25 05:44:40;;;;;;;78.15;35.58;;;;;;;2.35;90.68;103073.69;4991418;28;20038;-79
2022/01/25 05:47:07;;;;;;;66.25;33.28;;;;;;;2.40;90.00;103071.84;5003552;28;20038;-80
2022/01/25 05:49:35;;;;;;;58.95;30.48;;;;;;;2.49;89.25;103070.72;4997518;28;20038;-80
2022/01/25 05:52:03;;;;;;;66.03;31.30;;;;;;;2.43;88.83;103074.31;4993228;28;20044;-79
2022/01/25 05:54:28;;;;;;;64.25;29.83;;;;;;;2.45;88.19;103077.66;5000752;28;20027;-79
2022/01/25 05:56:54;;;;;;;56.47;28.92;;;;;;;2.46;88.57;103076.75;5012586;28;20388;-80
2022/01/25 05:59:19;;;;;;;53.90;28.33;;;;;;;2.40;88.15;103082.09;4994337;28;20500;-79
2022/01/25 06:01:45;;;;;;;57.40;29.70;;;;;;;2.37;88.97;103084.72;4994248;28;20049;-80
2022/01/25 06:04:11;;;;;;;62.15;31.63;;;;;;;2.33;89.16;103078.03;4992914;28;20037;-78
2022/01/25 06:06:37;;;;;;;62.70;31.80;;;;;;;2.32;89.45;103091.72;5004679;28;20076;-80
2022/01/25 06:09:03;;;;;;;70.10;30.40;;;;;;;2.31;89.69;103092.59;4993374;28;20480;-80
2022/01/25 06:11:28;;;;;;;60.65;32.10;;;;;;;2.29;89.51;103090.06;5008715;28;20571;-80
2022/01/25 06:13:54;;;;;;;61.80;31.90;;;;;;;2.30;89.94;103091.78;5008191;28;20349;-79
2022/01/25 06:16:19;;;;;;;65.20;34.33;;;;;;;2.30;90.00;103085.81;5003356;28;20033;-79
2022/01/25 06:18:45;;;;;;;74.25;36.33;;;;;;;2.31;90.32;103085.75;4990618;28;20616;-80
2022/01/25 06:21:10;;;;;;;69.20;35.22;;;;;;;2.31;89.86;103082.34;5009037;28;20034;-79
2022/01/25 06:23:36;;;;;;;71.07;35.03;;;;;;;2.32;90.05;103078.94;4989176;28;20572;-79
2022/01/25 06:26:01;;;;;;;70.28;35.08;;;;;;;2.36;90.22;103079.69;5002425;28;20026;-80
2022/01/25 06:28:27;;;;;;;66.80;33.33;;;;;;;2.39;89.57;103087.25;4992610;28;20036;-79
2022/01/25 06:30:52;;;;;;;61.65;31.52;;;;;;;2.32;89.55;103079.75;4983420;28;20110;-80
2022/01/25 06:33:18;;;;;;;64.10;33.05;;;;;;;2.31;90.35;103084.91;4992544;28;20037;-79
2022/01/25 06:35:46;;;;;;;63.85;33.35;;;;;;;2.31;90.11;103085.75;4999557;28;20038;-80
2022/01/25 06:38:12;;;;;;;68.80;34.70;;;;;;;2.29;90.62;103082.41;4989168;28;20030;-80
2022/01/25 06:40:38;;;;;;;71.45;34.85;;;;;;;2.29;90.67;103087.53;4989264;28;20045;-79
2022/01/25 06:43:03;;;;;;;81.38;33.35;;;;;;;2.32;90.54;103089.16;5005650;28;20029;-79
2022/01/25 06:45:29;;;;;;;70.43;35.22;;;;;;;2.30;90.79;103098.63;4989509;28;20238;-80
2022/01/25 06:47:54;;;;;;;75.25;33.83;;;;;;;2.30;90.74;103093.50;4995849;28;20124;-79
2022/01/25 06:50:23;;;;;;;78.13;37.40;;;;;;;2.31;90.76;103090.88;5007075;28;20041;-80
2022/01/25 06:52:49;;;;;;;76.22;35.53;;;;;;;2.28;90.18;103095.25;5004467;28;20042;-79
2022/01/25 06:55:17;;;;;;;83.43;38.58;;;;;;;2.27;90.00;103099.53;5010828;28;20547;-80
2022/01/25 06:57:44;;;;;;;90.45;38.50;;;;;;;2.29;89.46;103096.94;5008992;28;20590;-80
2022/01/25 07:00:13;;;;;;;80.40;39.58;;;;;;;2.27;89.66;103096.13;5014686;28;20037;-79
2022/01/25 07:02:39;;;;;;;78.25;36.88;;;;;;;2.31;89.29;103095.16;4994212;28;20025;-80
2022/01/25 07:05:05;;;;;;;68.68;33.20;;;;;;;2.43;87.62;103099.94;5008820;28;21320;-80
2022/01/25 07:07:31;;;;;;;73.90;34.05;;;;;;;2.29;87.97;103100.31;5009168;28;20045;-79
2022/01/25 07:09:57;;;;;;;69.03;32.40;;;;;;;2.22;88.38;103098.81;5012251;28;20040;-80
2022/01/25 07:12:23;;;;;;;67.05;33.67;;;;;;;2.20;88.67;103107.44;5006373;28;20063;-79
2022/01/25 07:14:49;;;;;;;73.93;34.28;;;;;;;2.22;89.03;103106.50;5009003;28;20026;-80
2022/01/25 07:17:15;;;;;;;75.93;35.70;;;;;;;2.22;88.93;103103.13;5012354;28;20045;-80
2022/01/25 07:19:40;;;;;;;73.30;36.67;;;;;;;2.22;88.99;103100.56;4989181;28;21332;-80
2022/01/25 07:22:06;;;;;;;73.75;34.67;;;;;;;2.20;89.37;103100.59;4992838;28;20069;-79
2022/01/25 07:24:31;;;;;;;76.80;37.33;;;;;;;2.22;89.66;103095.44;5007324;28;20167;-80
2022/01/25 07:26:57;;;;;;;69.32;34.15;;;;;;;2.20;89.22;103094.63;4996479;28;20025;-80
2022/01/25 07:29:22;;;;;;;77.15;34.80;;;;;;;2.18;89.25;103089.56;5009966;28;20068;-79
2022/01/25 07:31:48;;;;;;;71.85;34.67;;;;;;;2.18;89.15;103091.28;4991091;28;20030;-79
2022/01/25 07:34:13;;;;;;;67.93;31.50;;;;;;;2.25;88.08;103090.22;5009165;28;20030;-80
2022/01/25 07:36:42;;;;;;;63.50;31.52;;;;;;;2.22;88.37;103085.19;5011077;28;20034;-80
2022/01/25 07:39:10;;;;;;;58.13;29.42;;;;;;;2.22;88.43;103086.03;4988739;28;20057;-80
2022/01/25 07:41:37;;;;;;;67.25;32.83;;;;;;;2.26;88.26;103077.38;4994995;28;20037;-80
2022/01/25 07:44:02;;;;;;;71.20;33.53;;;;;;;2.25;88.46;103085.13;5012629;28;20120;-80
2022/01/25 07:46:29;;;;;;;82.53;38.58;;;;;;;2.22;89.17;103096.25;4990801;28;20034;-79
2022/01/25 07:48:56;;;;;;;78.85;36.83;;;;;;;2.22;89.25;103093.69;5006679;28;20030;-80
2022/01/25 07:51:22;;;;;;;66.55;32.33;;;;;;;2.22;88.66;103091.16;4996872;28;20017;-80
2022/01/25 07:53:47;;;;;;;70.13;34.20;;;;;;;2.20;88.83;103098.03;5011191;28;20519;-81
2022/01/25 07:56:13;;;;;;;69.03;33.70;;;;;;;2.24;88.74;103098.78;4994190;28;20120;-80
2022/01/25 07:58:38;;;;;;;62.03;30.92;;;;;;;2.25;88.33;103096.19;4996219;28;20025;-80
2022/01/25 08:01:04;;;;;;;70.82;34.40;;;;;;;2.25;88.25;103095.34;5009719;28;20256;-81
2022/01/25 08:03:30;;;;;;;63.03;32.22;;;;;;;2.30;87.66;103101.19;4992591;28;20030;-80
2022/01/25 08:05:56;;;;;;;66.63;30.60;;;;;;;2.33;87.79;103093.38;4985684;28;20030;-80
2022/01/25 08:08:22;;;;;;;55.80;29.88;;;;;;;2.39;86.79;103098.31;5008509;28;20057;-79
2022/01/25 08:10:48;;;;;;;60.97;30.77;;;;;;;2.33;87.05;103098.50;5007762;28;20487;-80
2022/01/25 08:13:13;;;;;;;65.85;30.27;;;;;;;2.33;86.90;103108.75;5007866;28;20031;-79
2022/01/25 08:15:39;;;;;;;52.15;26.98;;;;;;;2.37;86.68;103109.50;5026248;28;20030;-80
2022/01/25 08:18:05;;;;;;;62.92;31.70;;;;;;;2.31;87.22;103110.53;5014807;28;20048;-80
2022/01/25 08:20:33;;;;;;;57.03;31.08;;;;;;;2.23;87.71;103108.19;5029522;28;20492;-79
2022/01/25 08:22:59;;;;;;;61.45;30.73;;;;;;;2.19;88.15;103101.50;5005272;28;20025;-80
2022/01/25 08:25:24;;;;;;;60.17;31.05;;;;;;;2.20;88.89;103107.44;4987317;28;20610;-80
2022/01/25 08:27:50;;;;;;;52.58;28.70;;;;;;;2.19;89.08;103101.50;5000552;28;20030;-81
2022/01/25 08:30:16;;;;;;;61.05;29.00;;;;;;;2.30;88.61;103112.25;4985327;28;20034;-81
2022/01/25 08:32:42;;;;;;;69.47;33.00;;;;;;;2.39;87.87;103106.00;4986197;28;20039;-80
2022/01/25 08:35:09;;;;;;;69.40;33.45;;;;;;;2.30;87.87;103112.25;4993297;28;20033;-81
2022/01/25 08:37:34;;;;;;;63.72;32.55;;;;;;;2.31;88.18;103113.09;5006608;28;20514;-80
2022/01/25 08:40:01;;;;;;;68.82;32.47;;;;;;;2.36;88.10;103115.53;4995558;28;20031;-80
2022/01/25 08:42:27;;;;;;;66.50;30.05;;;;;;;2.34;88.53;103115.56;5022936;28;20562;-80
2022/01/25 08:44:52;;;;;;;62.72;31.67;;;;;;;2.31;88.44;103105.41;4995637;28;20026;-79
2022/01/25 08:47:18;;;;;;;68.93;32.13;;;;;;;2.39;88.47;103108.56;4993203;28;20044;-80
2022/01/25 08:49:44;;;;;;;54.85;29.67;;;;;;;2.30;88.45;103113.97;5007104;28;20053;-80
2022/01/25 08:52:09;;;;;;;61.22;30.77;;;;;;;2.25;88.62;103114.09;5006750;28;20030;-80
2022/01/25 08:54:35;;;;;;;74.22;34.88;;;;;;;2.26;89.05;103113.22;5008095;28;20033;-80
2022/01/25 08:57:01;;;;;;;71.97;32.30;;;;;;;2.27;88.95;103119.19;4996682;28;20532;-80
2022/01/25 08:59:27;;;;;;;66.47;33.05;;;;;;;2.26;89.06;103117.50;5007144;28;20045;-80
2022/01/25 09:01:52;;;;;;;62.10;30.48;;;;;;;2.26;89.12;103127.75;4996174;28;20435;-80
2022/01/25 09:04:18;;;;;;;61.83;31.65;;;;;;;2.28;89.32;103126.81;4997928;28;20033;-79
2022/01/25 09:06:43;;;;;;;66.90;31.25;;;;;;;2.31;89.22;103120.75;4993943;28;20111;-80
2022/01/25 09:09:10;;;;;;;62.10;32.40;;;;;;;2.32;88.70;103132.69;5006261;28;20351;-80
2022/01/25 09:11:37;;;;;;;68.00;31.90;;;;;;;2.33;88.78;103124.94;5012442;28;20038;-80
2022/01/25 09:14:04;;;;;;;68.47;32.00;;;;;;;2.44;87.45;103134.88;4996782;28;20451;-81
2022/01/25 09:16:31;;;;;;;56.17;28.30;;;;;;;2.41;86.61;103134.13;5001019;28;20030;-80
2022/01/25 09:18:56;;;;;;;63.20;29.42;;;;;;;2.35;86.77;103137.72;4996431;28;20038;-81
2022/01/25 09:21:22;;;;;;;67.90;31.25;;;;;;;2.30;87.40;103137.84;5013912;28;20083;-80
2022/01/25 09:23:48;;;;;;;57.38;29.45;;;;;;;2.29;87.99;103136.16;5014914;28;20044;-80
2022/01/25 09:26:13;;;;;;;59.70;28.75;;;;;;;2.32;88.50;103150.63;5018256;28;20056;-80
2022/01/25 09:28:39;;;;;;;62.42;30.33;;;;;;;2.34;88.83;103151.41;4989420;28;20030;-79
2022/01/25 09:31:04;;;;;;;62.28;28.73;;;;;;;2.37;89.03;103147.91;4992787;28;20030;-80
2022/01/25 09:33:30;;;;;;;64.78;30.60;;;;;;;2.40;88.73;103152.97;4992163;28;20033;-80
2022/01/25 09:35:56;;;;;;;64.80;30.40;;;;;;;2.45;87.07;103149.38;4990323;28;20489;-80
2022/01/25 09:38:23;;;;;;;59.50;29.23;;;;;;;2.40;87.26;103142.72;5011346;28;20065;-80
2022/01/25 09:40:48;;;;;;;68.75;32.05;;;;;;;2.40;87.71;103151.22;4987103;28;20080;-79
2022/01/25 09:43:14;;;;;;;65.10;31.33;;;;;;;2.42;87.95;103148.63;4994156;28;20088;-80
2022/01/25 09:45:40;;;;;;;69.57;33.78;;;;;;;2.43;88.34;103148.59;5008007;28;20085;-80
2022/01/25 09:48:08;;;;;;;74.07;34.22;;;;;;;2.44;88.65;103152.81;4998954;28;20045;-80
2022/01/25 09:50:35;;;;;;;94.53;43.03;;;;;;;2.55;88.44;103149.09;5011208;28;20033;-80
2022/01/25 09:53:01;;;;;;;69.00;34.40;;;;;;;2.48;87.77;103156.94;5006123;28;20037;-80
2022/01/25 09:55:30;;;;;;;63.97;31.10;;;;;;;2.43;87.35;103156.28;5003582;28;20099;-80
2022/01/25 09:57:56;;;;;;;62.08;30.40;;;;;;;2.44;87.63;103160.50;4993092;28;20041;-81
2022/01/25 10:00:25;;;;;;;63.83;30.80;;;;;;;2.48;87.52;103153.56;5009980;28;20022;-79
2022/01/25 10:05:33;;;;;;;66.65;32.80;;;;;;;2.48;88.01;103158.69;5007551;28;20041;-80
2022/01/25 10:08:10;;;;;;;69.25;32.10;;;;;;;2.50;87.39;103156.91;5006876;28;20049;-80
2022/01/25 10:10:40;;;;;;;66.30;32.10;;;;;;;2.52;86.77;103158.56;5004078;28;20045;-80
2022/01/25 10:13:28;;;;;;;62.20;30.90;;;;;;;2.52;87.35;103157.69;4997377;28;20277;-81
2022/01/25 10:16:11;;;;;;;67.88;30.58;;;;;;;2.42;87.30;103154.56;5003379;28;20148;-79
2022/01/25 10:18:49;;;;;;;68.55;31.30;;;;;;;2.48;87.09;103158.69;4999818;28;20038;-79
2022/01/25 10:21:28;;;;;;;63.95;31.10;;;;;;;2.51;87.19;103159.44;4991781;28;20397;-80
2022/01/25 10:24:15;;;;;;;62.05;29.10;;;;;;;2.55;87.02;103159.34;5008520;28;20038;-80
2022/01/25 10:26:42;;;;;;;62.17;29.85;;;;;;;2.52;87.04;103166.25;5008932;28;20510;-81
2022/01/25 10:29:10;;;;;;;74.18;30.98;;;;;;;2.52;86.73;103167.94;5014826;28;20355;-81
2022/01/25 10:31:45;;;;;;;70.55;32.30;;;;;;;2.55;87.13;103165.31;4990041;28;20037;-80
2022/01/25 10:34:13;;;;;;;68.35;32.55;;;;;;;2.62;87.11;103169.38;5016556;28;20385;-80
2022/01/25 10:36:44;;;;;;;77.70;32.60;;;;;;;2.65;86.90;103169.25;5006007;28;20115;-80
2022/01/25 10:39:10;;;;;;;73.22;34.42;;;;;;;2.66;86.36;103165.00;5000420;28;20034;-80
2022/01/25 10:41:35;;;;;;;76.75;33.25;;;;;;;2.64;86.29;103159.91;5004464;28;20041;-80
2022/01/25 10:44:01;;;;;;;75.95;33.13;;;;;;;2.68;85.55;103155.53;5011318;28;20038;-80
2022/01/25 10:46:29;;;;;;;64.93;30.60;;;;;;;2.67;85.73;103153.84;4987669;28;20559;-80
2022/01/25 10:49:05;;;;;;;76.18;33.55;;;;;;;2.78;85.07;103161.19;5013467;28;20084;-80
2022/01/25 10:51:38;;;;;;;76.82;33.20;;;;;;;2.85;84.12;103150.72;5001669;28;20038;-79
2022/01/25 10:54:03;;;;;;;75.32;32.85;;;;;;;2.89;84.26;103152.28;4998392;28;20041;-81
2022/01/25 10:56:46;;;;;;;80.57;33.70;;;;;;;2.91;83.89;103147.94;4989428;28;20046;-80
2022/01/25 10:59:16;;;;;;;75.63;33.92;;;;;;;2.90;84.31;103145.44;5001464;28;20048;-80
2022/01/25 11:01:49;;;;;;;83.03;34.80;;;;;;;2.86;84.56;103157.53;5002313;28;20088;-80
2022/01/25 11:04:17;;;;;;;73.30;33.05;;;;;;;2.91;84.04;103154.81;4996595;28;20056;-81
2022/01/25 11:06:43;;;;;;;75.93;32.33;;;;;;;2.90;83.65;103153.97;5004774;28;20509;-80
2022/01/25 11:09:11;;;;;;;78.55;32.33;;;;;;;2.85;83.74;103150.72;4987856;28;20030;-79
2022/01/25 11:11:44;;;;;;;74.95;32.95;;;;;;;2.91;83.66;103147.13;5006194;28;20076;-80
2022/01/25 11:16:54;;;;;;;78.15;32.20;;;;;;;2.86;84.17;103144.72;5009333;28;19984;-80
2022/01/25 11:19:21;;;;;;;78.60;32.78;;;;;;;2.91;84.35;103142.00;4990848;28;20022;-81
2022/01/25 11:21:48;;;;;;;79.35;32.25;;;;;;;3.08;82.44;103136.31;4986030;28;20135;-80
2022/01/25 11:24:16;;;;;;;73.32;31.92;;;;;;;2.99;82.58;103134.06;5004648;28;20052;-79
2022/01/25 11:26:43;;;;;;;78.80;33.58;;;;;;;3.01;83.38;103135.66;5004999;28;20500;-80
2022/01/25 11:29:09;;;;;;;83.97;34.55;;;;;;;2.97;84.24;103135.81;4987131;28;20026;-80
2022/01/25 11:31:38;;;;;;;82.32;35.13;;;;;;;3.02;83.84;103134.78;5006537;28;20100;-80
2022/01/25 11:34:07;;;;;;;86.80;35.67;;;;;;;3.02;84.33;103139.91;5002628;28;20041;-81
2022/01/25 11:36:42;;;;;;;87.28;36.10;;;;;;;3.09;84.14;103133.72;4991404;28;20030;-80
2022/01/25 11:39:09;;;;;;;89.13;36.67;;;;;;;3.08;84.63;103136.31;5007688;28;20328;-80
2022/01/25 11:41:35;;;;;;;99.20;39.00;;;;;;;3.33;82.31;103133.75;4991839;28;20053;-80
2022/01/25 11:44:10;;;;;;;101.68;37.33;;;;;;;3.27;82.83;103136.53;4996259;28;20033;-79
2022/01/25 11:46:37;;;;;;;88.22;35.10;;;;;;;3.23;82.51;103134.97;4993484;28;20041;-80
2022/01/25 11:49:17;;;;;;;88.00;35.58;;;;;;;3.19;83.04;103134.25;5003207;28;20050;-79
2022/01/25 11:51:43;;;;;;;91.32;36.50;;;;;;;3.13;82.65;103137.00;5001783;28;20393;-79
2022/01/25 11:54:09;;;;;;;90.55;35.80;;;;;;;3.21;82.25;103134.19;5005969;28;20551;-80
2022/01/25 11:56:36;;;;;;;95.85;37.22;;;;;;;3.21;82.78;103140.16;4995844;28;20037;-80
2022/01/25 11:59:02;;;;;;;94.50;34.90;;;;;;;3.15;82.74;103135.22;5011536;28;20555;-80
2022/01/25 12:01:28;;;;;;;99.45;38.42;;;;;;;3.14;83.65;103130.16;5011733;28;20124;-81
2022/01/25 12:04:03;;;;;;;88.28;34.88;;;;;;;3.21;83.79;103134.19;4995721;28;20026;-80
2022/01/25 12:06:32;;;;;;;101.88;37.53;;;;;;;3.21;82.89;103136.75;4996188;28;20517;-79
2022/01/25 12:12:01;;;;;;;94.60;35.90;;;;;;;3.35;81.93;103142.25;5009809;28;20336;-80
2022/01/25 12:14:42;;;;;;;91.20;36.00;;;;;;;3.47;81.95;103135.88;5009185;28;20064;-81
2022/01/25 12:17:16;;;;;;;93.43;34.83;;;;;;;3.44;82.26;103136.81;4990517;28;20084;-79
2022/01/25 12:19:53;;;;;;;101.38;38.10;;;;;;;3.40;82.54;103134.41;5010816;28;20038;-80
2022/01/25 12:22:42;;;;;;;99.55;37.65;;;;;;;3.28;82.84;103133.09;5012105;28;20083;-80
2022/01/25 12:25:35;;;;;;;97.40;37.63;;;;;;;3.24;83.17;103129.81;5007134;28;20038;-81
2022/01/25 12:28:07;;;;;;;96.07;35.05;;;;;;;3.24;83.04;103128.94;5014823;28;20049;-80
2022/01/25 12:30:42;;;;;;;91.78;34.78;;;;;;;3.34;82.96;103127.75;5011944;28;20536;-80
2022/01/25 12:33:20;;;;;;;101.78;36.38;;;;;;;3.19;82.05;103123.97;5011322;28;20045;-80
2022/01/25 12:35:54;;;;;;;95.43;34.50;;;;;;;3.19;82.58;103121.41;5011512;28;20028;-80
2022/01/25 12:38:21;;;;;;;92.93;34.95;;;;;;;3.25;82.82;103121.22;4992567;28;20041;-81
2022/01/25 12:41:00;;;;;;;90.30;34.78;;;;;;;3.29;81.99;103122.78;5007799;28;20034;-80
2022/01/25 12:43:38;;;;;;;97.68;36.05;;;;;;;3.28;82.64;103115.97;5008611;28;20042;-81
2022/01/25 12:46:19;;;;;;;95.05;34.97;;;;;;;3.31;82.66;103117.59;4993654;28;20034;-81
2022/01/25 12:48:51;;;;;;;91.70;35.58;;;;;;;3.29;82.98;103120.22;5010823;28;20049;-80
2022/01/25 12:51:28;;;;;;;94.00;35.10;;;;;;;3.32;82.23;103114.16;5004118;28;20038;-80
2022/01/25 12:53:57;;;;;;;98.45;35.25;;;;;;;3.22;82.61;103121.31;4996657;28;20476;-80
2022/01/25 12:56:27;;;;;;;95.15;36.05;;;;;;;3.25;82.41;103108.38;5006885;28;20220;-81
2022/01/25 12:59:06;;;;;;;105.65;38.65;;;;;;;3.28;82.59;103110.03;4990876;28;20037;-80
2022/01/25 13:01:32;;;;;;;97.32;36.45;;;;;;;3.26;82.20;103104.13;5009034;28;20412;-80